sensor_id;sensor_type;location;lat;lon;timestamp;temperature;humidity
11491;DHT22;5802;52.832;4.758;2023-12-20T00:00:20;21.40;49.70
11491;DHT22;5802;52.832;4.758;2023-12-20T00:02:47;21.40;49.60
11491;DHT22;5802;52.832;4.758;2023-12-20T00:05:13;21.40;49.60
11491;DHT22;5802;52.832;4.758;2023-12-20T00:07:40;21.40;49.70
11491;DHT22;5802;52.832;4.758;2023-12-20T00:10:08;21.40;49.70
11491;DHT22;5802;52.832;4.758;2023-12-20T00:12:35;21.40;49.60
11491;DHT22;5802;52.832;4.758;2023-12-20T00:15:03;21.40;49.60
11491;DHT22;5802;52.832;4.758;2023-12-20T00:17:30;21.40;49.60
11491;DHT22;5802;52.832;4.758;2023-12-20T00:19:57;21.40;49.70
11491;DHT22;5802;52.832;4.758;2023-12-20T00:22:24;21.40;49.70
11491;DHT22;5802;52.832;4.758;2023-12-20T00:24:51;21.40;49.70
11491;DHT22;5802;52.832;4.758;2023-12-20T00:27:18;21.40;49.70
11491;DHT22;5802;52.832;4.758;2023-12-20T00:29:44;21.40;49.60
11491;DHT22;5802;52.832;4.758;2023-12-20T00:32:16;21.40;49.70
11491;DHT22;5802;52.832;4.758;2023-12-20T00:34:43;21.40;49.70
11491;DHT22;5802;52.832;4.758;2023-12-20T00:37:10;21.40;49.70
11491;DHT22;5802;52.832;4.758;2023-12-20T00:39:37;21.40;49.60
11491;DHT22;5802;52.832;4.758;2023-12-20T00:42:04;21.40;49.60
11491;DHT22;5802;52.832;4.758;2023-12-20T00:44:31;21.40;49.60
11491;DHT22;5802;52.832;4.758;2023-12-20T00:46:58;21.40;49.60
11491;DHT22;5802;52.832;4.758;2023-12-20T00:49:26;21.40;49.60
11491;DHT22;5802;52.832;4.758;2023-12-20T00:51:53;21.40;49.60
11491;DHT22;5802;52.832;4.758;2023-12-20T00:54:20;21.40;49.60
11491;DHT22;5802;52.832;4.758;2023-12-20T00:56:47;21.40;49.60
11491;DHT22;5802;52.832;4.758;2023-12-20T00:59:14;21.40;49.60
11491;DHT22;5802;52.832;4.758;2023-12-20T01:01:41;21.40;49.60
11491;DHT22;5802;52.832;4.758;2023-12-20T01:04:08;21.40;49.60
11491;DHT22;5802;52.832;4.758;2023-12-20T01:06:36;21.40;49.60
11491;DHT22;5802;52.832;4.758;2023-12-20T01:09:04;21.40;49.60
11491;DHT22;5802;52.832;4.758;2023-12-20T01:11:31;21.40;49.60
11491;DHT22;5802;52.832;4.758;2023-12-20T01:13:57;21.40;49.60
11491;DHT22;5802;52.832;4.758;2023-12-20T01:16:24;21.40;49.60
11491;DHT22;5802;52.832;4.758;2023-12-20T01:18:51;21.40;49.70
11491;DHT22;5802;52.832;4.758;2023-12-20T01:21:18;21.40;49.60
11491;DHT22;5802;52.832;4.758;2023-12-20T01:23:45;21.40;49.60
11491;DHT22;5802;52.832;4.758;2023-12-20T01:26:12;21.40;49.60
11491;DHT22;5802;52.832;4.758;2023-12-20T01:28:39;21.40;49.60
11491;DHT22;5802;52.832;4.758;2023-12-20T01:31:06;21.40;49.50
11491;DHT22;5802;52.832;4.758;2023-12-20T01:33:32;21.40;49.60
11491;DHT22;5802;52.832;4.758;2023-12-20T01:35:59;21.40;49.50
11491;DHT22;5802;52.832;4.758;2023-12-20T01:38:26;21.40;49.40
11491;DHT22;5802;52.832;4.758;2023-12-20T01:40:54;21.40;49.40
11491;DHT22;5802;52.832;4.758;2023-12-20T01:43:21;21.40;49.40
11491;DHT22;5802;52.832;4.758;2023-12-20T01:45:48;21.40;49.40
11491;DHT22;5802;52.832;4.758;2023-12-20T01:48:16;21.40;49.30
11491;DHT22;5802;52.832;4.758;2023-12-20T01:50:44;21.40;49.30
11491;DHT22;5802;52.832;4.758;2023-12-20T01:53:12;21.50;49.30
11491;DHT22;5802;52.832;4.758;2023-12-20T01:55:40;21.50;49.20
11491;DHT22;5802;52.832;4.758;2023-12-20T01:58:09;21.50;49.20
11491;DHT22;5802;52.832;4.758;2023-12-20T02:00:37;21.50;49.20
11491;DHT22;5802;52.832;4.758;2023-12-20T02:03:04;21.50;49.10
11491;DHT22;5802;52.832;4.758;2023-12-20T02:05:33;21.50;49.00
11491;DHT22;5802;52.832;4.758;2023-12-20T02:08:00;21.60;49.00
11491;DHT22;5802;52.832;4.758;2023-12-20T02:10:27;21.60;49.00
11491;DHT22;5802;52.832;4.758;2023-12-20T02:12:55;21.60;48.90
11491;DHT22;5802;52.832;4.758;2023-12-20T02:15:23;21.60;48.80
11491;DHT22;5802;52.832;4.758;2023-12-20T02:17:50;21.60;48.80
11491;DHT22;5802;52.832;4.758;2023-12-20T02:20:17;21.60;48.80
11491;DHT22;5802;52.832;4.758;2023-12-20T02:22:45;21.70;48.80
11491;DHT22;5802;52.832;4.758;2023-12-20T02:25:12;21.70;48.70
11491;DHT22;5802;52.832;4.758;2023-12-20T02:27:39;21.70;48.70
11491;DHT22;5802;52.832;4.758;2023-12-20T02:30:07;21.70;48.70
11491;DHT22;5802;52.832;4.758;2023-12-20T02:32:34;21.70;48.60
11491;DHT22;5802;52.832;4.758;2023-12-20T02:35:01;21.70;48.50
11491;DHT22;5802;52.832;4.758;2023-12-20T02:37:27;21.70;48.50
11491;DHT22;5802;52.832;4.758;2023-12-20T02:39:56;21.80;48.40
11491;DHT22;5802;52.832;4.758;2023-12-20T02:42:22;21.80;48.40
11491;DHT22;5802;52.832;4.758;2023-12-20T02:44:49;21.80;48.30
11491;DHT22;5802;52.832;4.758;2023-12-20T02:47:16;21.80;48.30
11491;DHT22;5802;52.832;4.758;2023-12-20T02:49:43;21.80;48.20
11491;DHT22;5802;52.832;4.758;2023-12-20T02:52:10;21.90;48.20
11491;DHT22;5802;52.832;4.758;2023-12-20T02:54:37;21.90;48.10
11491;DHT22;5802;52.832;4.758;2023-12-20T02:57:06;21.90;48.10
11491;DHT22;5802;52.832;4.758;2023-12-20T02:59:33;21.90;48.00
11491;DHT22;5802;52.832;4.758;2023-12-20T03:02:00;21.90;48.00
11491;DHT22;5802;52.832;4.758;2023-12-20T03:04:26;21.90;48.00
11491;DHT22;5802;52.832;4.758;2023-12-20T03:06:53;21.90;47.90
11491;DHT22;5802;52.832;4.758;2023-12-20T03:09:20;22.00;47.90
11491;DHT22;5802;52.832;4.758;2023-12-20T03:11:47;22.00;47.80
11491;DHT22;5802;52.832;4.758;2023-12-20T03:14:15;22.00;47.80
11491;DHT22;5802;52.832;4.758;2023-12-20T03:16:46;22.00;47.80
11491;DHT22;5802;52.832;4.758;2023-12-20T03:19:14;22.00;47.80
11491;DHT22;5802;52.832;4.758;2023-12-20T03:21:41;22.00;47.70
11491;DHT22;5802;52.832;4.758;2023-12-20T03:24:08;22.00;47.60
11491;DHT22;5802;52.832;4.758;2023-12-20T03:26:35;22.10;47.70
11491;DHT22;5802;52.832;4.758;2023-12-20T03:29:02;22.10;47.60
11491;DHT22;5802;52.832;4.758;2023-12-20T03:31:30;22.10;47.60
11491;DHT22;5802;52.832;4.758;2023-12-20T03:33:57;22.10;47.60
11491;DHT22;5802;52.832;4.758;2023-12-20T03:36:23;22.10;47.60
11491;DHT22;5802;52.832;4.758;2023-12-20T03:38:50;22.10;47.50
11491;DHT22;5802;52.832;4.758;2023-12-20T03:41:17;22.10;47.60
11491;DHT22;5802;52.832;4.758;2023-12-20T03:43:44;22.10;47.50
11491;DHT22;5802;52.832;4.758;2023-12-20T03:46:11;22.10;47.40
11491;DHT22;5802;52.832;4.758;2023-12-20T03:48:39;22.20;47.50
11491;DHT22;5802;52.832;4.758;2023-12-20T03:51:06;22.10;47.40
11491;DHT22;5802;52.832;4.758;2023-12-20T03:53:33;22.20;47.40
11491;DHT22;5802;52.832;4.758;2023-12-20T03:55:59;22.20;47.30
11491;DHT22;5802;52.832;4.758;2023-12-20T03:58:26;22.20;47.30
11491;DHT22;5802;52.832;4.758;2023-12-20T04:00:53;22.20;47.90
11491;DHT22;5802;52.832;4.758;2023-12-20T04:03:20;22.20;47.30
11491;DHT22;5802;52.832;4.758;2023-12-20T04:05:48;22.20;47.20
11491;DHT22;5802;52.832;4.758;2023-12-20T04:08:15;22.20;47.30
11491;DHT22;5802;52.832;4.758;2023-12-20T04:10:42;22.20;47.20
11491;DHT22;5802;52.832;4.758;2023-12-20T04:13:09;22.20;47.20
11491;DHT22;5802;52.832;4.758;2023-12-20T04:15:35;22.20;47.20
11491;DHT22;5802;52.832;4.758;2023-12-20T04:18:02;22.20;47.10
11491;DHT22;5802;52.832;4.758;2023-12-20T04:20:29;22.30;47.20
11491;DHT22;5802;52.832;4.758;2023-12-20T04:22:58;22.30;47.10
11491;DHT22;5802;52.832;4.758;2023-12-20T04:25:26;22.30;47.10
11491;DHT22;5802;52.832;4.758;2023-12-20T04:27:53;22.30;47.10
11491;DHT22;5802;52.832;4.758;2023-12-20T04:30:20;22.30;47.00
11491;DHT22;5802;52.832;4.758;2023-12-20T04:32:47;22.30;47.00
11491;DHT22;5802;52.832;4.758;2023-12-20T04:35:14;22.30;47.00
11491;DHT22;5802;52.832;4.758;2023-12-20T04:37:41;22.30;47.00
11491;DHT22;5802;52.832;4.758;2023-12-20T04:40:09;22.30;47.00
11491;DHT22;5802;52.832;4.758;2023-12-20T04:42:37;22.30;47.00
11491;DHT22;5802;52.832;4.758;2023-12-20T04:45:04;22.30;47.00
11491;DHT22;5802;52.832;4.758;2023-12-20T04:47:31;22.30;46.90
11491;DHT22;5802;52.832;4.758;2023-12-20T04:49:58;22.30;46.90
11491;DHT22;5802;52.832;4.758;2023-12-20T04:52:25;22.30;46.90
11491;DHT22;5802;52.832;4.758;2023-12-20T04:54:52;22.30;46.90
11491;DHT22;5802;52.832;4.758;2023-12-20T04:57:21;22.30;46.90
11491;DHT22;5802;52.832;4.758;2023-12-20T04:59:47;22.30;46.80
11491;DHT22;5802;52.832;4.758;2023-12-20T05:02:14;22.30;46.80
11491;DHT22;5802;52.832;4.758;2023-12-20T05:04:41;22.40;46.90
11491;DHT22;5802;52.832;4.758;2023-12-20T05:07:08;22.40;47.20
11491;DHT22;5802;52.832;4.758;2023-12-20T05:09:35;22.40;46.90
11491;DHT22;5802;52.832;4.758;2023-12-20T05:12:03;22.40;46.80
11491;DHT22;5802;52.832;4.758;2023-12-20T05:14:31;22.40;46.80
11491;DHT22;5802;52.832;4.758;2023-12-20T05:16:58;22.40;46.80
11491;DHT22;5802;52.832;4.758;2023-12-20T05:19:25;22.40;46.80
11491;DHT22;5802;52.832;4.758;2023-12-20T05:21:52;22.40;46.80
11491;DHT22;5802;52.832;4.758;2023-12-20T05:24:19;22.40;46.80
11491;DHT22;5802;52.832;4.758;2023-12-20T05:26:45;22.40;46.80
11491;DHT22;5802;52.832;4.758;2023-12-20T05:29:12;22.40;46.80
11491;DHT22;5802;52.832;4.758;2023-12-20T05:31:41;22.40;46.80
11491;DHT22;5802;52.832;4.758;2023-12-20T05:34:07;22.40;46.80
11491;DHT22;5802;52.832;4.758;2023-12-20T05:36:35;22.40;46.70
11491;DHT22;5802;52.832;4.758;2023-12-20T05:39:02;22.40;46.70
11491;DHT22;5802;52.832;4.758;2023-12-20T05:41:30;22.40;46.70
11491;DHT22;5802;52.832;4.758;2023-12-20T05:43:57;22.40;46.70
11491;DHT22;5802;52.832;4.758;2023-12-20T05:46:25;22.40;46.70
11491;DHT22;5802;52.832;4.758;2023-12-20T05:48:53;22.40;46.70
11491;DHT22;5802;52.832;4.758;2023-12-20T05:51:20;22.40;46.60
11491;DHT22;5802;52.832;4.758;2023-12-20T05:53:46;22.40;46.60
11491;DHT22;5802;52.832;4.758;2023-12-20T05:56:15;22.40;46.60
11491;DHT22;5802;52.832;4.758;2023-12-20T05:58:42;22.40;46.60
11491;DHT22;5802;52.832;4.758;2023-12-20T06:01:09;22.40;46.60
11491;DHT22;5802;52.832;4.758;2023-12-20T06:03:36;22.40;46.60
11491;DHT22;5802;52.832;4.758;2023-12-20T06:06:06;22.40;46.50
11491;DHT22;5802;52.832;4.758;2023-12-20T06:08:33;22.40;46.50
11491;DHT22;5802;52.832;4.758;2023-12-20T06:11:00;22.50;46.60
11491;DHT22;5802;52.832;4.758;2023-12-20T06:13:27;22.50;46.60
11491;DHT22;5802;52.832;4.758;2023-12-20T06:15:54;22.40;46.60
11491;DHT22;5802;52.832;4.758;2023-12-20T06:18:22;22.50;46.60
11491;DHT22;5802;52.832;4.758;2023-12-20T06:20:50;22.50;46.50
11491;DHT22;5802;52.832;4.758;2023-12-20T06:23:18;22.50;46.50
11491;DHT22;5802;52.832;4.758;2023-12-20T06:25:45;22.50;46.60
11491;DHT22;5802;52.832;4.758;2023-12-20T06:28:12;22.50;46.50
11491;DHT22;5802;52.832;4.758;2023-12-20T06:30:40;22.50;46.50
11491;DHT22;5802;52.832;4.758;2023-12-20T06:33:07;22.50;46.50
11491;DHT22;5802;52.832;4.758;2023-12-20T06:35:35;22.50;46.50
11491;DHT22;5802;52.832;4.758;2023-12-20T06:38:02;22.50;46.50
11491;DHT22;5802;52.832;4.758;2023-12-20T06:40:30;22.50;46.50
11491;DHT22;5802;52.832;4.758;2023-12-20T06:42:57;22.50;46.50
11491;DHT22;5802;52.832;4.758;2023-12-20T06:45:25;22.50;46.50
11491;DHT22;5802;52.832;4.758;2023-12-20T06:47:52;22.50;46.40
11491;DHT22;5802;52.832;4.758;2023-12-20T06:50:20;22.50;46.40
11491;DHT22;5802;52.832;4.758;2023-12-20T06:52:47;22.50;46.40
11491;DHT22;5802;52.832;4.758;2023-12-20T06:55:14;22.50;46.40
11491;DHT22;5802;52.832;4.758;2023-12-20T06:57:42;22.50;46.40
11491;DHT22;5802;52.832;4.758;2023-12-20T07:00:11;22.50;46.40
11491;DHT22;5802;52.832;4.758;2023-12-20T07:02:38;22.50;46.50
11491;DHT22;5802;52.832;4.758;2023-12-20T07:05:05;22.50;46.40
11491;DHT22;5802;52.832;4.758;2023-12-20T07:07:32;22.50;46.30
11491;DHT22;5802;52.832;4.758;2023-12-20T07:09:59;22.50;46.40
11491;DHT22;5802;52.832;4.758;2023-12-20T07:12:26;22.50;47.00
11491;DHT22;5802;52.832;4.758;2023-12-20T07:14:55;22.50;46.30
11491;DHT22;5802;52.832;4.758;2023-12-20T07:17:22;22.50;46.30
11491;DHT22;5802;52.832;4.758;2023-12-20T07:19:49;22.50;46.30
11491;DHT22;5802;52.832;4.758;2023-12-20T07:22:16;22.50;46.30
11491;DHT22;5802;52.832;4.758;2023-12-20T07:24:43;22.50;46.30
11491;DHT22;5802;52.832;4.758;2023-12-20T07:27:09;22.50;46.30
11491;DHT22;5802;52.832;4.758;2023-12-20T07:29:36;22.50;46.20
11491;DHT22;5802;52.832;4.758;2023-12-20T07:32:05;22.50;46.20
11491;DHT22;5802;52.832;4.758;2023-12-20T07:34:32;22.60;46.30
11491;DHT22;5802;52.832;4.758;2023-12-20T07:36:59;22.60;46.30
11491;DHT22;5802;52.832;4.758;2023-12-20T07:39:26;22.60;46.30
11491;DHT22;5802;52.832;4.758;2023-12-20T07:41:53;22.60;46.30
11491;DHT22;5802;52.832;4.758;2023-12-20T07:44:20;22.60;46.30
11491;DHT22;5802;52.832;4.758;2023-12-20T07:46:47;22.60;46.20
11491;DHT22;5802;52.832;4.758;2023-12-20T07:49:15;22.60;46.20
11491;DHT22;5802;52.832;4.758;2023-12-20T07:51:42;22.60;46.20
11491;DHT22;5802;52.832;4.758;2023-12-20T07:54:09;22.60;46.20
11491;DHT22;5802;52.832;4.758;2023-12-20T07:56:36;22.60;46.20
11491;DHT22;5802;52.832;4.758;2023-12-20T07:59:02;22.60;46.20
11491;DHT22;5802;52.832;4.758;2023-12-20T08:01:29;22.60;46.10
11491;DHT22;5802;52.832;4.758;2023-12-20T08:03:56;22.60;46.10
11491;DHT22;5802;52.832;4.758;2023-12-20T08:06:25;22.60;46.20
11491;DHT22;5802;52.832;4.758;2023-12-20T08:08:52;22.60;46.10
11491;DHT22;5802;52.832;4.758;2023-12-20T08:11:19;22.60;46.10
11491;DHT22;5802;52.832;4.758;2023-12-20T08:13:45;22.60;46.10
11491;DHT22;5802;52.832;4.758;2023-12-20T08:16:12;22.60;46.10
11491;DHT22;5802;52.832;4.758;2023-12-20T08:18:41;22.60;46.10
11491;DHT22;5802;52.832;4.758;2023-12-20T08:21:08;22.60;46.00
11491;DHT22;5802;52.832;4.758;2023-12-20T08:23:36;22.70;46.10
11491;DHT22;5802;52.832;4.758;2023-12-20T08:26:04;22.60;46.10
11491;DHT22;5802;52.832;4.758;2023-12-20T08:28:31;22.70;46.10
11491;DHT22;5802;52.832;4.758;2023-12-20T08:30:58;22.70;46.00
11491;DHT22;5802;52.832;4.758;2023-12-20T08:33:25;22.70;46.00
11491;DHT22;5802;52.832;4.758;2023-12-20T08:35:52;22.70;46.00
11491;DHT22;5802;52.832;4.758;2023-12-20T08:38:19;22.70;46.00
11491;DHT22;5802;52.832;4.758;2023-12-20T08:40:47;22.70;46.00
11491;DHT22;5802;52.832;4.758;2023-12-20T08:43:14;22.70;46.00
11491;DHT22;5802;52.832;4.758;2023-12-20T08:45:41;22.70;46.10
11491;DHT22;5802;52.832;4.758;2023-12-20T08:48:08;22.70;46.00
11491;DHT22;5802;52.832;4.758;2023-12-20T08:50:35;22.70;45.90
11491;DHT22;5802;52.832;4.758;2023-12-20T08:53:02;22.70;45.90
11491;DHT22;5802;52.832;4.758;2023-12-20T08:55:29;22.70;45.90
11491;DHT22;5802;52.832;4.758;2023-12-20T08:57:58;22.70;45.90
11491;DHT22;5802;52.832;4.758;2023-12-20T09:00:25;22.70;45.90
11491;DHT22;5802;52.832;4.758;2023-12-20T09:02:53;22.70;45.90
11491;DHT22;5802;52.832;4.758;2023-12-20T09:05:20;22.70;45.90
11491;DHT22;5802;52.832;4.758;2023-12-20T09:07:48;22.70;45.90
11491;DHT22;5802;52.832;4.758;2023-12-20T09:10:14;22.70;45.90
11491;DHT22;5802;52.832;4.758;2023-12-20T09:12:41;22.70;45.90
11491;DHT22;5802;52.832;4.758;2023-12-20T09:15:10;22.70;45.90
11491;DHT22;5802;52.832;4.758;2023-12-20T09:17:36;22.80;45.90
11491;DHT22;5802;52.832;4.758;2023-12-20T09:20:04;22.80;45.90
11491;DHT22;5802;52.832;4.758;2023-12-20T09:22:33;22.80;45.90
11491;DHT22;5802;52.832;4.758;2023-12-20T09:25:00;22.80;45.80
11491;DHT22;5802;52.832;4.758;2023-12-20T09:27:27;22.80;45.80
11491;DHT22;5802;52.832;4.758;2023-12-20T09:29:54;22.80;45.80
11491;DHT22;5802;52.832;4.758;2023-12-20T09:32:22;22.80;45.80
11491;DHT22;5802;52.832;4.758;2023-12-20T09:34:49;22.80;45.80
11491;DHT22;5802;52.832;4.758;2023-12-20T09:37:16;22.80;45.70
11491;DHT22;5802;52.832;4.758;2023-12-20T09:39:42;22.80;45.70
11491;DHT22;5802;52.832;4.758;2023-12-20T09:42:11;22.80;45.70
11491;DHT22;5802;52.832;4.758;2023-12-20T09:44:43;22.80;45.70
11491;DHT22;5802;52.832;4.758;2023-12-20T09:47:11;22.80;45.70
11491;DHT22;5802;52.832;4.758;2023-12-20T09:49:40;22.80;45.70
11491;DHT22;5802;52.832;4.758;2023-12-20T09:52:09;22.80;45.70
11491;DHT22;5802;52.832;4.758;2023-12-20T09:54:37;22.80;45.70
11491;DHT22;5802;52.832;4.758;2023-12-20T09:57:04;22.90;45.70
11491;DHT22;5802;52.832;4.758;2023-12-20T09:59:31;22.90;45.70
11491;DHT22;5802;52.832;4.758;2023-12-20T10:02:00;22.90;45.70
11491;DHT22;5802;52.832;4.758;2023-12-20T10:04:32;22.90;45.60
11491;DHT22;5802;52.832;4.758;2023-12-20T10:07:03;22.90;45.70
11491;DHT22;5802;52.832;4.758;2023-12-20T10:09:31;22.90;45.60
11491;DHT22;5802;52.832;4.758;2023-12-20T10:11:58;22.90;45.60
11491;DHT22;5802;52.832;4.758;2023-12-20T10:14:25;22.90;45.60
11491;DHT22;5802;52.832;4.758;2023-12-20T10:16:52;22.90;45.60
11491;DHT22;5802;52.832;4.758;2023-12-20T10:19:21;22.90;45.60
11491;DHT22;5802;52.832;4.758;2023-12-20T10:21:48;22.90;45.50
11491;DHT22;5802;52.832;4.758;2023-12-20T10:24:18;22.90;45.50
11491;DHT22;5802;52.832;4.758;2023-12-20T10:26:45;23.00;45.50
11491;DHT22;5802;52.832;4.758;2023-12-20T10:29:12;22.90;45.50
11491;DHT22;5802;52.832;4.758;2023-12-20T10:31:38;23.00;45.50
11491;DHT22;5802;52.832;4.758;2023-12-20T10:34:05;23.00;45.40
11491;DHT22;5802;52.832;4.758;2023-12-20T10:36:33;23.00;45.50
11491;DHT22;5802;52.832;4.758;2023-12-20T10:39:01;23.00;45.40
11491;DHT22;5802;52.832;4.758;2023-12-20T10:41:31;23.00;45.40
11491;DHT22;5802;52.832;4.758;2023-12-20T10:43:59;23.00;45.30
11491;DHT22;5802;52.832;4.758;2023-12-20T10:46:27;23.00;45.30
11491;DHT22;5802;52.832;4.758;2023-12-20T10:48:55;23.00;45.30
11491;DHT22;5802;52.832;4.758;2023-12-20T10:51:23;23.10;45.30
11491;DHT22;5802;52.832;4.758;2023-12-20T10:53:52;23.10;45.30
11491;DHT22;5802;52.832;4.758;2023-12-20T10:56:20;23.10;45.20
11491;DHT22;5802;52.832;4.758;2023-12-20T10:58:50;23.10;45.30
11491;DHT22;5802;52.832;4.758;2023-12-20T11:01:18;23.10;45.10
11491;DHT22;5802;52.832;4.758;2023-12-20T11:03:49;23.10;45.10
11491;DHT22;5802;52.832;4.758;2023-12-20T11:06:27;23.10;45.10
11491;DHT22;5802;52.832;4.758;2023-12-20T11:09:10;23.10;45.10
11491;DHT22;5802;52.832;4.758;2023-12-20T11:11:56;23.10;45.10
11491;DHT22;5802;52.832;4.758;2023-12-20T11:14:31;23.10;45.10
11491;DHT22;5802;52.832;4.758;2023-12-20T11:17:07;23.10;45.10
11491;DHT22;5802;52.832;4.758;2023-12-20T11:19:36;23.10;45.10
11491;DHT22;5802;52.832;4.758;2023-12-20T11:22:04;23.20;45.20
11491;DHT22;5802;52.832;4.758;2023-12-20T11:24:31;23.20;45.20
11491;DHT22;5802;52.832;4.758;2023-12-20T11:27:00;23.20;45.10
11491;DHT22;5802;52.832;4.758;2023-12-20T11:29:36;23.20;45.20
11491;DHT22;5802;52.832;4.758;2023-12-20T11:32:04;23.20;45.10
11491;DHT22;5802;52.832;4.758;2023-12-20T11:34:51;23.20;45.10
11491;DHT22;5802;52.832;4.758;2023-12-20T11:37:19;23.20;45.10
11491;DHT22;5802;52.832;4.758;2023-12-20T11:39:54;23.20;45.10
11491;DHT22;5802;52.832;4.758;2023-12-20T11:42:21;23.20;45.10
11491;DHT22;5802;52.832;4.758;2023-12-20T11:44:50;23.20;45.10
11491;DHT22;5802;52.832;4.758;2023-12-20T11:47:17;23.20;45.10
11491;DHT22;5802;52.832;4.758;2023-12-20T11:49:46;23.20;45.10
11491;DHT22;5802;52.832;4.758;2023-12-20T11:52:13;23.20;45.00
11491;DHT22;5802;52.832;4.758;2023-12-20T11:54:40;23.30;45.10
11491;DHT22;5802;52.832;4.758;2023-12-20T11:57:07;23.30;45.00
11491;DHT22;5802;52.832;4.758;2023-12-20T11:59:33;23.30;45.00
11491;DHT22;5802;52.832;4.758;2023-12-20T12:02:02;23.30;45.00
11491;DHT22;5802;52.832;4.758;2023-12-20T12:04:29;23.30;45.00
11491;DHT22;5802;52.832;4.758;2023-12-20T12:06:55;23.30;45.00
11491;DHT22;5802;52.832;4.758;2023-12-20T12:09:22;23.30;45.00
11491;DHT22;5802;52.832;4.758;2023-12-20T12:11:49;23.30;45.00
11491;DHT22;5802;52.832;4.758;2023-12-20T12:14:16;23.30;44.80
11491;DHT22;5802;52.832;4.758;2023-12-20T12:16:44;23.30;44.90
11491;DHT22;5802;52.832;4.758;2023-12-20T12:19:21;23.30;44.80
11491;DHT22;5802;52.832;4.758;2023-12-20T12:21:49;23.30;44.80
11491;DHT22;5802;52.832;4.758;2023-12-20T12:24:20;23.40;44.90
11491;DHT22;5802;52.832;4.758;2023-12-20T12:26:50;23.30;44.90
11491;DHT22;5802;52.832;4.758;2023-12-20T12:29:17;23.30;44.90
11491;DHT22;5802;52.832;4.758;2023-12-20T12:31:44;23.30;44.80
11491;DHT22;5802;52.832;4.758;2023-12-20T12:34:11;23.40;44.80
11491;DHT22;5802;52.832;4.758;2023-12-20T12:36:40;23.30;44.80
11491;DHT22;5802;52.832;4.758;2023-12-20T12:39:06;23.40;45.50
11491;DHT22;5802;52.832;4.758;2023-12-20T12:41:34;23.30;44.80
11491;DHT22;5802;52.832;4.758;2023-12-20T12:44:00;23.40;44.90
11491;DHT22;5802;52.832;4.758;2023-12-20T12:46:27;23.30;44.80
11491;DHT22;5802;52.832;4.758;2023-12-20T12:48:54;23.40;44.80
11491;DHT22;5802;52.832;4.758;2023-12-20T12:51:21;23.40;44.80
11491;DHT22;5802;52.832;4.758;2023-12-20T12:53:49;23.30;44.80
11491;DHT22;5802;52.832;4.758;2023-12-20T12:56:16;23.30;44.80
11491;DHT22;5802;52.832;4.758;2023-12-20T12:58:43;23.40;44.90
11491;DHT22;5802;52.832;4.758;2023-12-20T13:01:10;23.40;44.90
11491;DHT22;5802;52.832;4.758;2023-12-20T13:03:37;23.40;44.80
11491;DHT22;5802;52.832;4.758;2023-12-20T13:06:04;23.40;44.80
11491;DHT22;5802;52.832;4.758;2023-12-20T13:08:34;23.40;44.80
11491;DHT22;5802;52.832;4.758;2023-12-20T13:11:02;23.40;44.80
11491;DHT22;5802;52.832;4.758;2023-12-20T13:13:30;23.40;44.80
11491;DHT22;5802;52.832;4.758;2023-12-20T13:15:56;23.40;44.80
11491;DHT22;5802;52.832;4.758;2023-12-20T13:18:23;23.40;44.80
11491;DHT22;5802;52.832;4.758;2023-12-20T13:20:50;23.40;45.40
11491;DHT22;5802;52.832;4.758;2023-12-20T13:23:17;23.40;44.80
11491;DHT22;5802;52.832;4.758;2023-12-20T13:25:44;23.40;44.80
11491;DHT22;5802;52.832;4.758;2023-12-20T13:28:13;23.40;44.80
11491;DHT22;5802;52.832;4.758;2023-12-20T13:30:40;23.40;44.80
11491;DHT22;5802;52.832;4.758;2023-12-20T13:33:07;23.40;44.80
11491;DHT22;5802;52.832;4.758;2023-12-20T13:35:34;23.40;44.80
11491;DHT22;5802;52.832;4.758;2023-12-20T13:38:01;23.40;44.90
11491;DHT22;5802;52.832;4.758;2023-12-20T13:40:28;23.40;44.80
11491;DHT22;5802;52.832;4.758;2023-12-20T13:42:55;23.50;44.90
11491;DHT22;5802;52.832;4.758;2023-12-20T13:45:23;23.50;44.90
11491;DHT22;5802;52.832;4.758;2023-12-20T13:47:50;23.50;44.80
11491;DHT22;5802;52.832;4.758;2023-12-20T13:50:17;23.50;44.90
11491;DHT22;5802;52.832;4.758;2023-12-20T13:52:44;23.50;44.80
11491;DHT22;5802;52.832;4.758;2023-12-20T13:55:12;23.50;44.90
11491;DHT22;5802;52.832;4.758;2023-12-20T13:57:38;23.50;44.90
11491;DHT22;5802;52.832;4.758;2023-12-20T14:00:07;23.40;44.80
11491;DHT22;5802;52.832;4.758;2023-12-20T14:02:41;23.50;44.80
11491;DHT22;5802;52.832;4.758;2023-12-20T14:05:08;23.50;44.90
11491;DHT22;5802;52.832;4.758;2023-12-20T14:07:35;23.50;44.80
11491;DHT22;5802;52.832;4.758;2023-12-20T14:10:03;23.50;44.80
11491;DHT22;5802;52.832;4.758;2023-12-20T14:12:31;23.50;44.80
11491;DHT22;5802;52.832;4.758;2023-12-20T14:15:03;23.50;44.80
11491;DHT22;5802;52.832;4.758;2023-12-20T14:17:34;23.50;44.80
11491;DHT22;5802;52.832;4.758;2023-12-20T14:20:03;23.50;44.80
11491;DHT22;5802;52.832;4.758;2023-12-20T14:22:30;23.50;44.80
11491;DHT22;5802;52.832;4.758;2023-12-20T14:24:57;23.50;44.90
11491;DHT22;5802;52.832;4.758;2023-12-20T14:27:24;23.50;44.80
11491;DHT22;5802;52.832;4.758;2023-12-20T14:29:53;23.50;44.80
11491;DHT22;5802;52.832;4.758;2023-12-20T14:32:20;23.50;44.80
11491;DHT22;5802;52.832;4.758;2023-12-20T14:34:47;23.50;44.80
11491;DHT22;5802;52.832;4.758;2023-12-20T14:37:15;23.50;44.80
11491;DHT22;5802;52.832;4.758;2023-12-20T14:39:43;23.50;44.90
11491;DHT22;5802;52.832;4.758;2023-12-20T14:42:10;23.50;44.80
11491;DHT22;5802;52.832;4.758;2023-12-20T14:44:39;23.50;44.80
11491;DHT22;5802;52.832;4.758;2023-12-20T14:47:06;23.50;44.80
11491;DHT22;5802;52.832;4.758;2023-12-20T14:49:33;23.50;44.80
11491;DHT22;5802;52.832;4.758;2023-12-20T14:52:01;23.50;44.90
11491;DHT22;5802;52.832;4.758;2023-12-20T14:54:29;23.50;44.80
11491;DHT22;5802;52.832;4.758;2023-12-20T14:56:57;23.50;44.80
11491;DHT22;5802;52.832;4.758;2023-12-20T14:59:23;23.50;44.80
11491;DHT22;5802;52.832;4.758;2023-12-20T15:01:50;23.50;44.80
11491;DHT22;5802;52.832;4.758;2023-12-20T15:04:18;23.50;44.80
11491;DHT22;5802;52.832;4.758;2023-12-20T15:06:51;23.50;44.80
11491;DHT22;5802;52.832;4.758;2023-12-20T15:09:18;23.50;44.80
11491;DHT22;5802;52.832;4.758;2023-12-20T15:11:46;23.50;44.90
11491;DHT22;5802;52.832;4.758;2023-12-20T15:14:16;23.50;44.80
11491;DHT22;5802;52.832;4.758;2023-12-20T15:16:45;23.50;44.80
11491;DHT22;5802;52.832;4.758;2023-12-20T15:19:13;23.50;44.90
11491;DHT22;5802;52.832;4.758;2023-12-20T15:21:40;23.50;44.90
11491;DHT22;5802;52.832;4.758;2023-12-20T15:24:08;23.40;44.90
11491;DHT22;5802;52.832;4.758;2023-12-20T15:26:40;23.50;44.90
11491;DHT22;5802;52.832;4.758;2023-12-20T15:29:09;23.50;44.90
11491;DHT22;5802;52.832;4.758;2023-12-20T15:31:42;23.50;44.90
11491;DHT22;5802;52.832;4.758;2023-12-20T15:34:12;23.50;44.90
11491;DHT22;5802;52.832;4.758;2023-12-20T15:36:39;23.50;44.90
11491;DHT22;5802;52.832;4.758;2023-12-20T15:39:09;23.50;45.50
11491;DHT22;5802;52.832;4.758;2023-12-20T15:41:39;23.40;44.80
11491;DHT22;5802;52.832;4.758;2023-12-20T15:44:06;23.40;44.90
11491;DHT22;5802;52.832;4.758;2023-12-20T15:46:35;23.50;45.00